This is the latest recevied weather packets stored in our database for station/object N3AVN. If no packets are shown the sender has not sent any weather packets the latest 10 day(s).
| Time | Temp. | Humidity | Pressure | Rain* | Wind** | Luminosity | Snow |
|---|---|---|---|---|---|---|---|
| 1777552645 | 9.44° C | 99% | 1006.2 hPa | 0 mm | - | 32 W/m² | - |
| 1777552342 | 9.44° C | 99% | 1006.5 hPa | 0 mm | - | 29 W/m² | - |
| 1777552038 | 8.89° C | 99% | 1006.1 hPa | 0 mm | - | 38 W/m² | - |
| 1777551730 | 8.89° C | 99% | 1006.2 hPa | 0.51 mm | - | 46 W/m² | - |
| 1777551427 | 8.89° C | 99% | 1006.2 hPa | 0.51 mm | - | 49 W/m² | - |
| 1777551124 | 8.89° C | 99% | 1006.4 hPa | 0 mm | - | 37 W/m² | - |
| 1777550822 | 8.89° C | 99% | 1006.4 hPa | 0 mm | - | 44 W/m² | - |
| 1777550517 | 8.89° C | 99% | 1006.2 hPa | 0 mm | - | 56 W/m² | - |
| 1777550214 | 8.89° C | 99% | 1006.7 hPa | 0 mm | - | 40 W/m² | - |
| 1777549910 | 8.89° C | 99% | 1006.4 hPa | 0.51 mm | - | 32 W/m² | - |
| 1777549606 | 8.89° C | 99% | 1006.4 hPa | 1.27 mm | - | 34 W/m² | - |
| 1777549302 | 8.89° C | 99% | 1006.7 hPa | 0.51 mm | - | 24 W/m² | - |
| 1777549000 | 8.89° C | 99% | 1006.6 hPa | 0.51 mm | - | 34 W/m² | - |
| 1777548696 | 8.89° C | 99% | 1006.5 hPa | 0.51 mm | - | 42 W/m² | - |
| 1777548393 | 8.89° C | 99% | 1006.6 hPa | 0.51 mm | - | 29 W/m² | - |
| 1777548090 | 8.89° C | 99% | 1006.6 hPa | 0.51 mm | - | 24 W/m² | - |
| 1777547785 | 8.89° C | 99% | 1006.5 hPa | 0.51 mm | - | 23 W/m² | - |
| 1777547482 | 8.89° C | 99% | 1006.7 hPa | 0.51 mm | - | 18 W/m² | - |
| 1777547180 | 8.89° C | 99% | 1006.7 hPa | 0.51 mm | - | 11 W/m² | - |
| 1777546877 | 8.89° C | 99% | 1006.6 hPa | 1.27 mm | - | 4 W/m² | - |
| 1777546574 | 8.89° C | 99% | 1006.6 hPa | 0.51 mm | - | 5 W/m² | - |
| 1777546270 | 8.89° C | 99% | 1006.5 hPa | 0 mm | - | 5 W/m² | - |
| 1777545967 | 8.89° C | 99% | 1006.2 hPa | 0 mm | - | 4 W/m² | - |
| 1777545664 | 8.89° C | 99% | 1006.3 hPa | 0.51 mm | - | 4 W/m² | - |
| 1777545361 | 8.89° C | 99% | 1006.3 hPa | 0 mm | - | 2 W/m² | - |
* Rain latest hour (hover to see other rain measurements)
** Current wind speed in m/s (hover to see current wind gust speed)